sensor_id;sensor_type;location;lat;lon;timestamp;pressure;altitude;pressure_sealevel;temperature;humidity
56681;BME280;42558;52.388;13.390;2022-11-15T00:01:52;101077.04;;;3.28;100.00
56681;BME280;42558;52.388;13.390;2022-11-15T00:04:22;101076.49;;;3.32;100.00
56681;BME280;42558;52.388;13.390;2022-11-15T00:06:52;101067.36;;;3.26;100.00
56681;BME280;42558;52.388;13.390;2022-11-15T00:09:22;101069.76;;;3.25;100.00
56681;BME280;42558;52.388;13.390;2022-11-15T00:11:51;101069.04;;;3.25;100.00
56681;BME280;42558;52.388;13.390;2022-11-15T00:14:19;101067.58;;;3.20;100.00
56681;BME280;42558;52.388;13.390;2022-11-15T00:16:47;101056.34;;;3.21;100.00
56681;BME280;42558;52.388;13.390;2022-11-15T00:19:15;101057.30;;;3.23;100.00
56681;BME280;42558;52.388;13.390;2022-11-15T00:21:44;101060.30;;;3.20;100.00
56681;BME280;42558;52.388;13.390;2022-11-15T00:24:12;101064.59;;;3.19;100.00
56681;BME280;42558;52.388;13.390;2022-11-15T00:26:41;101057.30;;;3.19;100.00
56681;BME280;42558;52.388;13.390;2022-11-15T00:29:09;101057.13;;;3.20;100.00
56681;BME280;42558;52.388;13.390;2022-11-15T00:31:37;101056.02;;;3.18;100.00
56681;BME280;42558;52.388;13.390;2022-11-15T00:34:06;101055.08;;;3.16;100.00
56681;BME280;42558;52.388;13.390;2022-11-15T00:36:34;101051.09;;;3.17;100.00
56681;BME280;42558;52.388;13.390;2022-11-15T00:39:04;101044.21;;;3.18;100.00
56681;BME280;42558;52.388;13.390;2022-11-15T00:41:34;101043.37;;;3.11;100.00
56681;BME280;42558;52.388;13.390;2022-11-15T00:44:03;101046.36;;;3.12;100.00
56681;BME280;42558;52.388;13.390;2022-11-15T00:46:31;101047.13;;;3.07;100.00
56681;BME280;42558;52.388;13.390;2022-11-15T00:48:59;101043.40;;;3.05;100.00
56681;BME280;42558;52.388;13.390;2022-11-15T00:51:28;101036.70;;;2.99;100.00
56681;BME280;42558;52.388;13.390;2022-11-15T00:53:56;101036.30;;;3.01;100.00
56681;BME280;42558;52.388;13.390;2022-11-15T00:56:25;101035.59;;;3.01;100.00
56681;BME280;42558;52.388;13.390;2022-11-15T00:58:53;101031.85;;;2.95;100.00
56681;BME280;42558;52.388;13.390;2022-11-15T01:01:21;101031.39;;;2.90;100.00
56681;BME280;42558;52.388;13.390;2022-11-15T01:03:50;101029.31;;;2.86;100.00
56681;BME280;42558;52.388;13.390;2022-11-15T01:06:18;101028.48;;;2.87;100.00
56681;BME280;42558;52.388;13.390;2022-11-15T01:08:47;101026.32;;;2.85;100.00
56681;BME280;42558;52.388;13.390;2022-11-15T01:11:15;101022.33;;;2.82;100.00
56681;BME280;42558;52.388;13.390;2022-11-15T01:13:43;101025.45;;;2.79;100.00
56681;BME280;42558;52.388;13.390;2022-11-15T01:16:17;101027.66;;;2.81;100.00
56681;BME280;42558;52.388;13.390;2022-11-15T01:18:48;101020.77;;;2.82;100.00
56681;BME280;42558;52.388;13.390;2022-11-15T01:21:19;101019.79;;;2.83;100.00
56681;BME280;42558;52.388;13.390;2022-11-15T01:23:53;101022.10;;;2.84;100.00
56681;BME280;42558;52.388;13.390;2022-11-15T01:26:25;101016.52;;;2.81;100.00
56681;BME280;42558;52.388;13.390;2022-11-15T01:28:55;101014.11;;;2.81;100.00
56681;BME280;42558;52.388;13.390;2022-11-15T01:31:25;101012.45;;;2.75;100.00
56681;BME280;42558;52.388;13.390;2022-11-15T01:33:55;101005.20;;;2.73;100.00
56681;BME280;42558;52.388;13.390;2022-11-15T01:36:25;101002.16;;;2.71;100.00
56681;BME280;42558;52.388;13.390;2022-11-15T01:38:59;100995.56;;;2.71;100.00
56681;BME280;42558;52.388;13.390;2022-11-15T01:41:32;100996.32;;;2.72;100.00
56681;BME280;42558;52.388;13.390;2022-11-15T01:44:48;100994.86;;;2.67;100.00
56681;BME280;42558;52.388;13.390;2022-11-15T01:47:33;100985.48;;;2.63;100.00
56681;BME280;42558;52.388;13.390;2022-11-15T01:50:16;100981.52;;;2.64;100.00
56681;BME280;42558;52.388;13.390;2022-11-15T01:52:48;100976.55;;;2.58;100.00
56681;BME280;42558;52.388;13.390;2022-11-15T01:55:23;100970.80;;;2.58;100.00
56681;BME280;42558;52.388;13.390;2022-11-15T01:58:00;100968.10;;;2.56;100.00
56681;BME280;42558;52.388;13.390;2022-11-15T02:00:31;100960.61;;;2.44;100.00
56681;BME280;42558;52.388;13.390;2022-11-15T02:03:02;100957.84;;;2.48;100.00
56681;BME280;42558;52.388;13.390;2022-11-15T02:05:33;100957.38;;;2.50;100.00
56681;BME280;42558;52.388;13.390;2022-11-15T02:08:05;100956.17;;;2.50;100.00
56681;BME280;42558;52.388;13.390;2022-11-15T02:10:35;100952.40;;;2.51;100.00
56681;BME280;42558;52.388;13.390;2022-11-15T02:13:04;100951.58;;;2.44;100.00
56681;BME280;42558;52.388;13.390;2022-11-15T02:15:49;100946.36;;;2.44;100.00
56681;BME280;42558;52.388;13.390;2022-11-15T02:18:41;100948.60;;;2.40;100.00
56681;BME280;42558;52.388;13.390;2022-11-15T02:21:28;100945.40;;;2.42;100.00
56681;BME280;42558;52.388;13.390;2022-11-15T02:24:36;100944.67;;;2.41;100.00
56681;BME280;42558;52.388;13.390;2022-11-15T02:42:53;100948.21;;;2.29;100.00
56681;BME280;42558;52.388;13.390;2022-11-15T02:45:49;100947.10;;;2.27;100.00
56681;BME280;42558;52.388;13.390;2022-11-15T02:48:25;100943.16;;;2.32;100.00
56681;BME280;42558;52.388;13.390;2022-11-15T02:50:56;100943.33;;;2.35;100.00
56681;BME280;42558;52.388;13.390;2022-11-15T02:53:27;100941.39;;;2.31;100.00
56681;BME280;42558;52.388;13.390;2022-11-15T02:55:57;100940.20;;;2.32;100.00
56681;BME280;42558;52.388;13.390;2022-11-15T03:10:19;100932.16;;;2.27;100.00
56681;BME280;42558;52.388;13.390;2022-11-15T03:12:59;100932.45;;;2.26;100.00
56681;BME280;42558;52.388;13.390;2022-11-15T03:15:44;100930.26;;;2.24;100.00
56681;BME280;42558;52.388;13.390;2022-11-15T03:18:24;100928.19;;;2.20;100.00
56681;BME280;42558;52.388;13.390;2022-11-15T03:21:01;100927.09;;;2.19;100.00
56681;BME280;42558;52.388;13.390;2022-11-15T03:23:36;100932.30;;;2.15;100.00
56681;BME280;42558;52.388;13.390;2022-11-15T03:26:12;100932.80;;;2.12;100.00
56681;BME280;42558;52.388;13.390;2022-11-15T03:28:54;100933.73;;;2.10;100.00
56681;BME280;42558;52.388;13.390;2022-11-15T03:31:31;100930.98;;;2.10;100.00
56681;BME280;42558;52.388;13.390;2022-11-15T03:34:31;100926.61;;;2.10;100.00
56681;BME280;42558;52.388;13.390;2022-11-15T03:37:03;100923.83;;;2.13;100.00
56681;BME280;42558;52.388;13.390;2022-11-15T03:39:34;100922.09;;;2.16;100.00
56681;BME280;42558;52.388;13.390;2022-11-15T03:45:14;100926.73;;;2.19;100.00
56681;BME280;42558;52.388;13.390;2022-11-15T03:47:53;100932.40;;;2.11;100.00
56681;BME280;42558;52.388;13.390;2022-11-15T03:50:24;100930.32;;;2.04;100.00
56681;BME280;42558;52.388;13.390;2022-11-15T03:52:55;100931.23;;;1.99;100.00
56681;BME280;42558;52.388;13.390;2022-11-15T03:55:24;100924.11;;;2.08;100.00
56681;BME280;42558;52.388;13.390;2022-11-15T03:57:57;100927.02;;;2.11;100.00
56681;BME280;42558;52.388;13.390;2022-11-15T04:00:28;100925.30;;;2.08;100.00
56681;BME280;42558;52.388;13.390;2022-11-15T04:02:58;100919.85;;;2.06;100.00
56681;BME280;42558;52.388;13.390;2022-11-15T04:05:28;100913.02;;;2.05;100.00
56681;BME280;42558;52.388;13.390;2022-11-15T04:07:58;100911.29;;;2.05;100.00
56681;BME280;42558;52.388;13.390;2022-11-15T04:10:28;100912.02;;;2.02;100.00
56681;BME280;42558;52.388;13.390;2022-11-15T04:12:58;100911.02;;;2.03;100.00
56681;BME280;42558;52.388;13.390;2022-11-15T04:15:31;100907.30;;;2.05;100.00
56681;BME280;42558;52.388;13.390;2022-11-15T04:18:01;100904.85;;;2.05;100.00
56681;BME280;42558;52.388;13.390;2022-11-15T04:20:31;100904.20;;;2.06;100.00
56681;BME280;42558;52.388;13.390;2022-11-15T04:23:21;100903.12;;;2.05;100.00
56681;BME280;42558;52.388;13.390;2022-11-15T04:26:14;100902.77;;;1.94;100.00
56681;BME280;42558;52.388;13.390;2022-11-15T04:28:45;100897.77;;;1.91;100.00
56681;BME280;42558;52.388;13.390;2022-11-15T04:31:34;100896.54;;;1.94;100.00
56681;BME280;42558;52.388;13.390;2022-11-15T04:34:04;100897.88;;;1.97;100.00
56681;BME280;42558;52.388;13.390;2022-11-15T04:36:34;100897.31;;;2.00;100.00
56681;BME280;42558;52.388;13.390;2022-11-15T04:39:22;100897.09;;;1.99;100.00
56681;BME280;42558;52.388;13.390;2022-11-15T04:41:52;100898.48;;;2.02;100.00
56681;BME280;42558;52.388;13.390;2022-11-15T04:44:22;100895.64;;;2.01;100.00
56681;BME280;42558;52.388;13.390;2022-11-15T04:46:52;100892.78;;;1.96;100.00
56681;BME280;42558;52.388;13.390;2022-11-15T04:49:22;100891.45;;;1.94;100.00
56681;BME280;42558;52.388;13.390;2022-11-15T04:51:52;100889.42;;;1.94;100.00
56681;BME280;42558;52.388;13.390;2022-11-15T04:54:22;100890.39;;;1.97;100.00
56681;BME280;42558;52.388;13.390;2022-11-15T04:56:53;100895.72;;;1.99;100.00
56681;BME280;42558;52.388;13.390;2022-11-15T04:59:24;100899.69;;;1.99;100.00
56681;BME280;42558;52.388;13.390;2022-11-15T05:01:54;100895.11;;;1.97;100.00
56681;BME280;42558;52.388;13.390;2022-11-15T05:04:24;100891.30;;;1.97;100.00
56681;BME280;42558;52.388;13.390;2022-11-15T05:06:54;100889.57;;;2.21;100.00
56681;BME280;42558;52.388;13.390;2022-11-15T05:09:24;100884.48;;;2.20;100.00
56681;BME280;42558;52.388;13.390;2022-11-15T05:11:54;100884.77;;;2.12;100.00
56681;BME280;42558;52.388;13.390;2022-11-15T05:14:24;100885.48;;;2.02;100.00
56681;BME280;42558;52.388;13.390;2022-11-15T05:16:54;100890.24;;;1.97;100.00
56681;BME280;42558;52.388;13.390;2022-11-15T05:19:24;100890.23;;;1.94;100.00
56681;BME280;42558;52.388;13.390;2022-11-15T05:21:54;100889.64;;;1.92;100.00
56681;BME280;42558;52.388;13.390;2022-11-15T05:24:22;100886.16;;;1.95;100.00
56681;BME280;42558;52.388;13.390;2022-11-15T05:26:51;100881.82;;;1.95;100.00
56681;BME280;42558;52.388;13.390;2022-11-15T05:29:19;100886.02;;;1.92;100.00
56681;BME280;42558;52.388;13.390;2022-11-15T05:31:47;100885.56;;;1.94;100.00
56681;BME280;42558;52.388;13.390;2022-11-15T05:34:16;100888.56;;;1.94;100.00
56681;BME280;42558;52.388;13.390;2022-11-15T05:36:45;100883.06;;;1.92;100.00
56681;BME280;42558;52.388;13.390;2022-11-15T05:39:13;100888.92;;;1.91;100.00
56681;BME280;42558;52.388;13.390;2022-11-15T05:41:46;100892.34;;;1.87;100.00
56681;BME280;42558;52.388;13.390;2022-11-15T05:44:21;100892.15;;;1.83;100.00
56681;BME280;42558;52.388;13.390;2022-11-15T05:46:54;100886.78;;;1.76;100.00
56681;BME280;42558;52.388;13.390;2022-11-15T05:49:31;100890.28;;;1.83;100.00
56681;BME280;42558;52.388;13.390;2022-11-15T05:52:07;100888.77;;;1.85;100.00
56681;BME280;42558;52.388;13.390;2022-11-15T05:54:40;100887.48;;;1.83;100.00
56681;BME280;42558;52.388;13.390;2022-11-15T05:57:11;100882.98;;;1.76;100.00
56681;BME280;42558;52.388;13.390;2022-11-15T05:59:42;100880.64;;;1.78;100.00
56681;BME280;42558;52.388;13.390;2022-11-15T06:02:13;100886.87;;;1.78;100.00
56681;BME280;42558;52.388;13.390;2022-11-15T06:04:45;100885.81;;;1.78;100.00
56681;BME280;42558;52.388;13.390;2022-11-15T06:07:15;100888.89;;;1.80;100.00
56681;BME280;42558;52.388;13.390;2022-11-15T06:09:45;100889.84;;;1.72;100.00
56681;BME280;42558;52.388;13.390;2022-11-15T06:12:14;100891.13;;;1.80;100.00
56681;BME280;42558;52.388;13.390;2022-11-15T06:14:42;100891.17;;;1.81;100.00
56681;BME280;42558;52.388;13.390;2022-11-15T06:17:10;100891.30;;;1.80;100.00
56681;BME280;42558;52.388;13.390;2022-11-15T06:19:39;100891.02;;;1.88;100.00
56681;BME280;42558;52.388;13.390;2022-11-15T06:22:08;100896.08;;;1.92;100.00
56681;BME280;42558;52.388;13.390;2022-11-15T06:24:36;100899.89;;;1.92;100.00
56681;BME280;42558;52.388;13.390;2022-11-15T06:27:04;100902.38;;;2.00;100.00
56681;BME280;42558;52.388;13.390;2022-11-15T06:29:34;100907.64;;;2.01;100.00
56681;BME280;42558;52.388;13.390;2022-11-15T06:32:03;100904.17;;;1.98;100.00
56681;BME280;42558;52.388;13.390;2022-11-15T06:34:31;100906.45;;;2.02;100.00
56681;BME280;42558;52.388;13.390;2022-11-15T06:36:59;100902.75;;;2.01;100.00
56681;BME280;42558;52.388;13.390;2022-11-15T06:39:29;100905.36;;;2.04;100.00
56681;BME280;42558;52.388;13.390;2022-11-15T06:41:59;100905.41;;;2.06;100.00
56681;BME280;42558;52.388;13.390;2022-11-15T06:44:26;100908.89;;;2.06;100.00
56681;BME280;42558;52.388;13.390;2022-11-15T06:46:55;100915.11;;;2.08;100.00
56681;BME280;42558;52.388;13.390;2022-11-15T06:49:23;100909.64;;;2.24;100.00
56681;BME280;42558;52.388;13.390;2022-11-15T06:51:52;100912.96;;;2.21;100.00
56681;BME280;42558;52.388;13.390;2022-11-15T06:54:20;100915.48;;;2.23;100.00
56681;BME280;42558;52.388;13.390;2022-11-15T06:56:48;100916.17;;;2.16;100.00
56681;BME280;42558;52.388;13.390;2022-11-15T06:59:17;100917.38;;;2.16;100.00
56681;BME280;42558;52.388;13.390;2022-11-15T07:01:45;100917.25;;;2.16;100.00
56681;BME280;42558;52.388;13.390;2022-11-15T07:04:14;100915.83;;;2.23;100.00
56681;BME280;42558;52.388;13.390;2022-11-15T07:06:42;100918.44;;;2.27;100.00
56681;BME280;42558;52.388;13.390;2022-11-15T07:09:11;100918.89;;;2.32;100.00
56681;BME280;42558;52.388;13.390;2022-11-15T07:11:39;100916.15;;;2.33;100.00
56681;BME280;42558;52.388;13.390;2022-11-15T07:14:08;100917.48;;;2.39;100.00
56681;BME280;42558;52.388;13.390;2022-11-15T07:16:37;100923.27;;;2.43;100.00
56681;BME280;42558;52.388;13.390;2022-11-15T07:19:05;100923.13;;;2.44;100.00
56681;BME280;42558;52.388;13.390;2022-11-15T07:21:33;100921.25;;;2.53;100.00
56681;BME280;42558;52.388;13.390;2022-11-15T07:24:01;100923.85;;;2.56;100.00
56681;BME280;42558;52.388;13.390;2022-11-15T07:26:30;100928.19;;;2.67;100.00
56681;BME280;42558;52.388;13.390;2022-11-15T07:28:58;100925.10;;;2.75;100.00
56681;BME280;42558;52.388;13.390;2022-11-15T07:31:27;100923.39;;;2.97;100.00
56681;BME280;42558;52.388;13.390;2022-11-15T07:33:56;100919.20;;;3.19;100.00
56681;BME280;42558;52.388;13.390;2022-11-15T07:36:26;100920.77;;;3.20;100.00
56681;BME280;42558;52.388;13.390;2022-11-15T07:38:55;100922.64;;;3.19;100.00
56681;BME280;42558;52.388;13.390;2022-11-15T07:41:23;100922.14;;;3.27;100.00
56681;BME280;42558;52.388;13.390;2022-11-15T07:43:52;100916.86;;;3.37;100.00
56681;BME280;42558;52.388;13.390;2022-11-15T07:46:22;100919.16;;;3.45;100.00
56681;BME280;42558;52.388;13.390;2022-11-15T07:48:52;100919.66;;;3.53;100.00
56681;BME280;42558;52.388;13.390;2022-11-15T07:51:22;100918.14;;;3.58;100.00
56681;BME280;42558;52.388;13.390;2022-11-15T07:53:49;100924.09;;;3.63;100.00
56681;BME280;42558;52.388;13.390;2022-11-15T07:56:16;100919.20;;;3.70;100.00
56681;BME280;42558;52.388;13.390;2022-11-15T07:58:46;100920.11;;;3.79;100.00
56681;BME280;42558;52.388;13.390;2022-11-15T08:01:16;100917.70;;;3.83;100.00
56681;BME280;42558;52.388;13.390;2022-11-15T08:03:46;100915.43;;;3.91;100.00
56681;BME280;42558;52.388;13.390;2022-11-15T08:06:16;100908.65;;;3.96;100.00
56681;BME280;42558;52.388;13.390;2022-11-15T08:08:47;100905.80;;;4.11;100.00
56681;BME280;42558;52.388;13.390;2022-11-15T08:11:17;100907.69;;;4.18;100.00
56681;BME280;42558;52.388;13.390;2022-11-15T08:13:47;100904.45;;;4.24;100.00
56681;BME280;42558;52.388;13.390;2022-11-15T08:16:17;100900.87;;;4.30;100.00
56681;BME280;42558;52.388;13.390;2022-11-15T08:18:46;100903.53;;;4.40;100.00
56681;BME280;42558;52.388;13.390;2022-11-15T08:21:19;100904.64;;;4.46;100.00
56681;BME280;42558;52.388;13.390;2022-11-15T08:23:49;100902.81;;;4.56;100.00
56681;BME280;42558;52.388;13.390;2022-11-15T08:26:19;100899.70;;;4.70;100.00
56681;BME280;42558;52.388;13.390;2022-11-15T08:28:49;100901.58;;;4.87;100.00
56681;BME280;42558;52.388;13.390;2022-11-15T08:31:19;100894.41;;;5.05;100.00
56681;BME280;42558;52.388;13.390;2022-11-15T08:33:49;100887.63;;;5.33;100.00
56681;BME280;42558;52.388;13.390;2022-11-15T08:36:18;100890.55;;;5.41;100.00
56681;BME280;42558;52.388;13.390;2022-11-15T08:38:48;100892.25;;;5.65;100.00
56681;BME280;42558;52.388;13.390;2022-11-15T08:41:32;100895.81;;;6.37;100.00
56681;BME280;42558;52.388;13.390;2022-11-15T08:44:00;100899.86;;;6.33;100.00
56681;BME280;42558;52.388;13.390;2022-11-15T08:46:27;100902.00;;;6.13;100.00
56681;BME280;42558;52.388;13.390;2022-11-15T08:48:57;100902.84;;;6.33;100.00
56681;BME280;42558;52.388;13.390;2022-11-15T08:51:27;100896.75;;;6.72;100.00
56681;BME280;42558;52.388;13.390;2022-11-15T08:53:57;100894.93;;;6.87;100.00
56681;BME280;42558;52.388;13.390;2022-11-15T08:56:27;100893.83;;;6.91;100.00
56681;BME280;42558;52.388;13.390;2022-11-15T08:58:57;100896.45;;;7.32;100.00
56681;BME280;42558;52.388;13.390;2022-11-15T09:01:27;100893.88;;;7.58;100.00
56681;BME280;42558;52.388;13.390;2022-11-15T09:03:57;100897.36;;;7.16;100.00
56681;BME280;42558;52.388;13.390;2022-11-15T09:06:26;100896.73;;;6.89;100.00
56681;BME280;42558;52.388;13.390;2022-11-15T09:08:57;100899.82;;;6.87;100.00
56681;BME280;42558;52.388;13.390;2022-11-15T09:11:26;100896.73;;;6.77;100.00
56681;BME280;42558;52.388;13.390;2022-11-15T09:13:56;100894.65;;;6.77;100.00
56681;BME280;42558;52.388;13.390;2022-11-15T09:16:26;100894.23;;;6.87;100.00
56681;BME280;42558;52.388;13.390;2022-11-15T09:18:56;100889.98;;;6.91;100.00
56681;BME280;42558;52.388;13.390;2022-11-15T09:21:26;100886.85;;;7.03;100.00
56681;BME280;42558;52.388;13.390;2022-11-15T09:23:57;100887.59;;;7.09;100.00
56681;BME280;42558;52.388;13.390;2022-11-15T09:26:26;100896.86;;;7.16;100.00
56681;BME280;42558;52.388;13.390;2022-11-15T09:28:56;100897.56;;;7.28;100.00
56681;BME280;42558;52.388;13.390;2022-11-15T09:31:27;100899.48;;;7.40;100.00
56681;BME280;42558;52.388;13.390;2022-11-15T09:33:56;100901.38;;;7.45;100.00
56681;BME280;42558;52.388;13.390;2022-11-15T09:36:27;100900.04;;;7.72;100.00
56681;BME280;42558;52.388;13.390;2022-11-15T09:38:58;100895.08;;;8.23;100.00
56681;BME280;42558;52.388;13.390;2022-11-15T09:50:52;100895.74;;;10.60;92.62
56681;BME280;42558;52.388;13.390;2022-11-15T10:03:16;100874.09;;;12.61;82.60
56681;BME280;42558;52.388;13.390;2022-11-15T10:05:50;100868.15;;;12.28;81.29
56681;BME280;42558;52.388;13.390;2022-11-15T10:11:22;100863.27;;;12.10;86.30
56681;BME280;42558;52.388;13.390;2022-11-15T10:14:20;100853.70;;;13.37;80.44
56681;BME280;42558;52.388;13.390;2022-11-15T10:17:25;100841.38;;;15.34;74.03
56681;BME280;42558;52.388;13.390;2022-11-15T10:22:51;100822.39;;;16.49;61.94
56681;BME280;42558;52.388;13.390;2022-11-15T10:25:27;100817.19;;;16.71;62.91
56681;BME280;42558;52.388;13.390;2022-11-15T10:28:27;100815.59;;;16.42;61.15
56681;BME280;42558;52.388;13.390;2022-11-15T10:31:00;100813.92;;;15.67;64.75
56681;BME280;42558;52.388;13.390;2022-11-15T10:33:39;100799.86;;;17.65;60.36
56681;BME280;42558;52.388;13.390;2022-11-15T10:38:56;100801.96;;;14.78;66.54
56681;BME280;42558;52.388;13.390;2022-11-15T10:44:19;100799.07;;;14.25;69.05
56681;BME280;42558;52.388;13.390;2022-11-15T10:50:31;100787.45;;;15.62;63.59
56681;BME280;42558;52.388;13.390;2022-11-15T10:53:01;100783.38;;;15.88;62.88
56681;BME280;42558;52.388;13.390;2022-11-15T10:55:34;100779.64;;;15.63;62.57
56681;BME280;42558;52.388;13.390;2022-11-15T11:01:45;100789.80;;;13.44;72.96
56681;BME280;42558;52.388;13.390;2022-11-15T11:04:13;100785.20;;;12.04;77.68
56681;BME280;42558;52.388;13.390;2022-11-15T11:06:48;100781.09;;;12.00;80.24
56681;BME280;42558;52.388;13.390;2022-11-15T11:09:36;100779.29;;;11.92;80.74
56681;BME280;42558;52.388;13.390;2022-11-15T11:12:11;100776.73;;;11.85;82.88
56681;BME280;42558;52.388;13.390;2022-11-15T11:14:44;100777.98;;;11.51;83.52
56681;BME280;42558;52.388;13.390;2022-11-15T11:20:36;100773.98;;;11.38;85.08
56681;BME280;42558;52.388;13.390;2022-11-15T11:23:55;100770.38;;;11.31;85.46
56681;BME280;42558;52.388;13.390;2022-11-15T11:27:18;100765.14;;;11.18;84.83
56681;BME280;42558;52.388;13.390;2022-11-15T11:33:22;100760.83;;;11.26;86.09
56681;BME280;42558;52.388;13.390;2022-11-15T11:48:00;100747.77;;;11.39;85.44
56681;BME280;42558;52.388;13.390;2022-11-15T11:50:36;100743.73;;;11.42;85.65
56681;BME280;42558;52.388;13.390;2022-11-15T11:56:06;100734.88;;;11.52;86.19
56681;BME280;42558;52.388;13.390;2022-11-15T11:58:43;100736.32;;;11.57;85.05
56681;BME280;42558;52.388;13.390;2022-11-15T12:01:28;100735.42;;;11.56;84.68
56681;BME280;42558;52.388;13.390;2022-11-15T12:04:05;100730.67;;;11.57;84.41
56681;BME280;42558;52.388;13.390;2022-11-15T12:06:56;100725.09;;;11.62;83.96
56681;BME280;42558;52.388;13.390;2022-11-15T12:09:51;100721.98;;;11.68;84.03
56681;BME280;42558;52.388;13.390;2022-11-15T12:13:03;100716.77;;;11.77;84.57
56681;BME280;42558;52.388;13.390;2022-11-15T12:15:45;100712.10;;;11.86;82.99
56681;BME280;42558;52.388;13.390;2022-11-15T12:18:17;100715.20;;;11.80;83.42
56681;BME280;42558;52.388;13.390;2022-11-15T12:21:02;100714.79;;;11.72;84.26
56681;BME280;42558;52.388;13.390;2022-11-15T12:23:42;100710.61;;;11.78;84.97
56681;BME280;42558;52.388;13.390;2022-11-15T12:26:25;100706.93;;;11.80;84.41
56681;BME280;42558;52.388;13.390;2022-11-15T12:29:05;100698.29;;;11.79;83.63
56681;BME280;42558;52.388;13.390;2022-11-15T12:31:41;100694.77;;;11.80;83.49
56681;BME280;42558;52.388;13.390;2022-11-15T12:34:42;100693.11;;;11.90;84.16
56681;BME280;42558;52.388;13.390;2022-11-15T12:37:34;100690.36;;;11.99;83.40
56681;BME280;42558;52.388;13.390;2022-11-15T12:40:24;100688.93;;;11.97;83.37
56681;BME280;42558;52.388;13.390;2022-11-15T12:45:44;100688.22;;;11.96;84.07
56681;BME280;42558;52.388;13.390;2022-11-15T12:53:27;100676.30;;;12.07;83.80
56681;BME280;42558;52.388;13.390;2022-11-15T12:59:08;100666.61;;;12.05;83.42
56681;BME280;42558;52.388;13.390;2022-11-15T13:01:57;100665.59;;;12.14;83.13
56681;BME280;42558;52.388;13.390;2022-11-15T13:04:28;100662.98;;;12.18;82.32
56681;BME280;42558;52.388;13.390;2022-11-15T13:07:03;100659.79;;;12.15;82.72
56681;BME280;42558;52.388;13.390;2022-11-15T13:14:59;100662.63;;;12.17;83.53
56681;BME280;42558;52.388;13.390;2022-11-15T13:33:33;100653.66;;;11.92;87.13
56681;BME280;42558;52.388;13.390;2022-11-15T13:38:59;100640.30;;;11.73;88.89
56681;BME280;42558;52.388;13.390;2022-11-15T13:41:35;100641.88;;;11.74;88.59
56681;BME280;42558;52.388;13.390;2022-11-15T13:44:26;100640.86;;;11.78;88.35
56681;BME280;42558;52.388;13.390;2022-11-15T13:47:14;100642.73;;;11.69;88.77
56681;BME280;42558;52.388;13.390;2022-11-15T13:49:45;100642.94;;;11.74;88.48
56681;BME280;42558;52.388;13.390;2022-11-15T13:52:16;100644.72;;;11.77;88.56
56681;BME280;42558;52.388;13.390;2022-11-15T13:55:13;100643.88;;;11.81;87.99
56681;BME280;42558;52.388;13.390;2022-11-15T13:57:48;100639.98;;;11.79;88.09
56681;BME280;42558;52.388;13.390;2022-11-15T14:00:39;100638.20;;;11.76;88.24
56681;BME280;42558;52.388;13.390;2022-11-15T14:03:28;100633.92;;;11.69;88.70
56681;BME280;42558;52.388;13.390;2022-11-15T14:06:14;100633.17;;;11.63;89.32
56681;BME280;42558;52.388;13.390;2022-11-15T14:11:54;100641.25;;;11.61;89.33
56681;BME280;42558;52.388;13.390;2022-11-15T14:14:27;100645.02;;;11.49;89.76
56681;BME280;42558;52.388;13.390;2022-11-15T14:17:00;100646.87;;;11.36;90.90
56681;BME280;42558;52.388;13.390;2022-11-15T14:22:30;100647.60;;;11.38;89.85
56681;BME280;42558;52.388;13.390;2022-11-15T14:25:17;100645.31;;;11.19;91.42
56681;BME280;42558;52.388;13.390;2022-11-15T14:28:15;100639.90;;;11.05;92.63
56681;BME280;42558;52.388;13.390;2022-11-15T14:30:45;100626.23;;;10.92;93.51
56681;BME280;42558;52.388;13.390;2022-11-15T14:33:34;100624.35;;;10.80;94.23
56681;BME280;42558;52.388;13.390;2022-11-15T14:36:14;100629.71;;;10.71;95.27
56681;BME280;42558;52.388;13.390;2022-11-15T14:38:46;100631.39;;;10.64;95.61
56681;BME280;42558;52.388;13.390;2022-11-15T14:41:23;100634.21;;;10.65;95.82
56681;BME280;42558;52.388;13.390;2022-11-15T14:43:54;100635.20;;;10.59;96.09
56681;BME280;42558;52.388;13.390;2022-11-15T14:46:24;100636.88;;;10.52;96.63
56681;BME280;42558;52.388;13.390;2022-11-15T14:48:53;100635.05;;;10.46;97.27
56681;BME280;42558;52.388;13.390;2022-11-15T14:51:23;100635.67;;;10.40;97.98
56681;BME280;42558;52.388;13.390;2022-11-15T14:53:53;100634.62;;;10.40;98.33
56681;BME280;42558;52.388;13.390;2022-11-15T14:56:24;100630.52;;;10.49;97.61
56681;BME280;42558;52.388;13.390;2022-11-15T14:58:54;100629.21;;;10.58;96.93
56681;BME280;42558;52.388;13.390;2022-11-15T15:01:26;100626.34;;;10.38;97.28
56681;BME280;42558;52.388;13.390;2022-11-15T15:03:56;100622.50;;;10.15;98.71
56681;BME280;42558;52.388;13.390;2022-11-15T15:06:27;100620.02;;;9.99;99.80
56681;BME280;42558;52.388;13.390;2022-11-15T15:08:58;100614.16;;;9.95;100.00
56681;BME280;42558;52.388;13.390;2022-11-15T15:11:31;100616.04;;;9.79;100.00
56681;BME280;42558;52.388;13.390;2022-11-15T15:14:01;100616.70;;;9.65;100.00
56681;BME280;42558;52.388;13.390;2022-11-15T15:16:30;100613.36;;;9.53;100.00
56681;BME280;42558;52.388;13.390;2022-11-15T15:19:00;100611.84;;;9.44;100.00
56681;BME280;42558;52.388;13.390;2022-11-15T15:21:30;100609.89;;;9.33;100.00
56681;BME280;42558;52.388;13.390;2022-11-15T15:24:05;100616.20;;;9.22;100.00
56681;BME280;42558;52.388;13.390;2022-11-15T15:26:33;100613.02;;;9.12;100.00